Hoquiam, Washington
Current Conditions -  °F | °C
As of 6:53 PM on Sunday 23 Nov 2014 (Local Time) from KHQM Reporting Station
Haze Haze  
Wind Chill: 45°   Ceiling: Unl
Heat Index: 45°   Visibility: 6mi
Dew Point: 43°   Wind: 3mph
Humidity: 93%   Direction: 100°E
Pressure: 30.29"   Gusts: NA
Location:  46.98°N, 123.88°W
Report Text: KHQM 240253Z AUTO 10003KT 6SM BR CLR 07/06 A3029 RMK AO2 SLP261 T00720061 53020
Loading
Personal Weather Stations






























Interactive Weather Map New forecast layout! Learn more

10-Day Weather Forecast

Advertisements
Track Severe Weather on mobile